createdAt,value
2019-02-12T00:02:13.500Z,1.27
2019-02-12T00:04:42.284Z,1.27
2019-02-12T00:07:11.069Z,1.28
2019-02-12T00:09:39.901Z,1.27
2019-02-12T00:12:08.659Z,1.27
2019-02-12T00:14:38.031Z,1.26
2019-02-12T00:17:07.802Z,1.25
2019-02-12T00:19:36.891Z,1.27
2019-02-12T00:22:05.716Z,1.28
2019-02-12T00:24:34.478Z,1.27
2019-02-12T00:27:03.924Z,1.28
2019-02-12T00:29:32.745Z,1.27
2019-02-12T00:32:01.550Z,1.26
2019-02-12T00:34:31.662Z,1.25
2019-02-12T00:37:00.643Z,1.24
2019-02-12T00:39:29.418Z,1.27
2019-02-12T00:42:00.215Z,1.28
2019-02-12T00:44:29.031Z,1.26
2019-02-12T00:46:57.855Z,1.24
2019-02-12T00:49:26.714Z,1.22
2019-02-12T00:51:55.534Z,1.20
2019-02-12T00:54:24.367Z,1.17
2019-02-12T00:56:53.246Z,1.14
2019-02-12T00:59:22.036Z,1.11
2019-02-12T01:01:51.820Z,1.09
2019-02-12T01:04:21.796Z,1.08
2019-02-12T01:06:50.600Z,1.07
2019-02-12T01:09:19.367Z,1.05
2019-02-12T01:11:49.992Z,1.06
2019-02-12T01:14:18.806Z,1.06
2019-02-12T01:16:48.052Z,1.07
2019-02-12T01:19:16.912Z,1.05
2019-02-12T01:21:45.654Z,1.03
2019-02-12T01:24:14.493Z,1.00
2019-02-12T01:26:43.252Z,0.97
2019-02-12T01:29:12.990Z,0.95
2019-02-12T01:31:41.862Z,0.92
2019-02-12T01:34:10.625Z,0.91
2019-02-12T01:36:39.391Z,0.87
2019-02-12T01:39:11.759Z,0.85
2019-02-12T01:41:40.588Z,0.82
2019-02-12T01:44:09.768Z,0.81
2019-02-12T01:46:38.649Z,0.79
2019-02-12T01:49:07.423Z,0.79
2019-02-12T01:51:36.255Z,0.79
2019-02-12T01:54:05.034Z,0.79
2019-02-12T01:56:33.856Z,0.75
2019-02-12T01:59:02.723Z,0.74
2019-02-12T02:01:31.496Z,0.72
2019-02-12T02:04:00.255Z,0.71
2019-02-12T02:06:29.242Z,0.70
2019-02-12T02:08:58.160Z,0.70
2019-02-12T02:11:28.059Z,0.69
2019-02-12T02:13:57.255Z,0.68
2019-02-12T02:16:26.217Z,0.66
2019-02-12T02:18:54.959Z,0.64
2019-02-12T02:21:23.810Z,0.63
2019-02-12T02:23:53.127Z,0.63
2019-02-12T02:26:21.945Z,0.65
2019-02-12T02:28:50.737Z,0.64
2019-02-12T02:31:19.603Z,0.62
2019-02-12T02:33:48.407Z,0.61
2019-02-12T02:36:19.451Z,0.60
2019-02-12T02:38:48.343Z,0.58
2019-02-12T02:41:17.176Z,0.57
2019-02-12T02:43:45.968Z,0.56
2019-02-12T02:46:15.512Z,0.54
2019-02-12T02:48:45.432Z,0.54
2019-02-12T02:51:14.287Z,0.53
2019-02-12T02:53:43.739Z,0.53
2019-02-12T02:56:12.528Z,0.51
2019-02-12T02:58:41.363Z,0.52
2019-02-12T03:01:10.151Z,0.50
2019-02-12T03:03:38.917Z,0.50
2019-02-12T03:06:07.684Z,0.50
2019-02-12T03:08:37.703Z,0.49
2019-02-12T03:11:06.476Z,0.48
2019-02-12T03:13:37.108Z,0.48
2019-02-12T03:16:06.363Z,0.48
2019-02-12T03:18:35.154Z,0.48
2019-02-12T03:21:03.992Z,0.47
2019-02-12T03:23:32.864Z,0.46
2019-02-12T03:26:02.937Z,0.46
2019-02-12T03:28:31.678Z,0.46
2019-02-12T03:31:00.550Z,0.45
2019-02-12T03:33:29.309Z,0.44
2019-02-12T03:35:58.499Z,0.43
2019-02-12T03:38:27.558Z,0.44
2019-02-12T03:40:56.339Z,0.44
2019-02-12T03:43:25.110Z,0.44
2019-02-12T03:45:54.174Z,0.44
2019-02-12T03:48:24.379Z,0.44
2019-02-12T03:50:54.437Z,0.44
2019-02-12T03:53:23.228Z,0.44
2019-02-12T03:55:54.495Z,0.43
2019-02-12T03:58:23.287Z,0.45
2019-02-12T04:00:52.707Z,0.45
2019-02-12T04:03:21.474Z,0.45
2019-02-12T04:05:50.914Z,0.45
2019-02-12T04:08:20.258Z,0.46
2019-02-12T04:10:51.496Z,0.47
2019-02-12T04:13:20.288Z,0.47
2019-02-12T04:15:49.130Z,0.50
2019-02-12T04:18:18.477Z,0.52
2019-02-12T04:20:47.975Z,0.53
2019-02-12T04:23:16.860Z,0.55
2019-02-12T04:25:45.650Z,0.56
2019-02-12T04:28:14.424Z,0.58
2019-02-12T04:30:43.195Z,0.58
2019-02-12T04:33:11.994Z,0.58
2019-02-12T04:35:40.804Z,0.60
2019-02-12T04:38:09.643Z,0.62
2019-02-12T04:40:38.443Z,0.66
2019-02-12T04:43:07.260Z,0.71
2019-02-12T04:45:36.068Z,0.76
2019-02-12T04:48:04.963Z,0.83
2019-02-12T04:50:34.994Z,0.90
2019-02-12T04:53:03.789Z,0.97
2019-02-12T04:55:33.852Z,1.03
2019-02-12T04:58:02.637Z,1.08
2019-02-12T05:00:31.400Z,1.16
2019-02-12T05:03:00.235Z,1.19
2019-02-12T05:05:29.832Z,1.23
2019-02-12T05:07:59.151Z,1.28
2019-02-12T05:10:30.952Z,1.34
2019-02-12T05:12:59.759Z,1.35
2019-02-12T05:15:28.531Z,1.39
2019-02-12T05:17:57.878Z,1.43
2019-02-12T05:20:26.652Z,1.48
2019-02-12T05:22:55.419Z,1.50
2019-02-12T05:25:24.197Z,1.51
2019-02-12T05:27:53.227Z,1.53
2019-02-12T05:30:23.644Z,1.55
2019-02-12T05:32:53.071Z,1.56
2019-02-12T05:35:22.949Z,1.59
2019-02-12T05:37:54.467Z,1.62
2019-02-12T05:40:24.053Z,1.65
2019-02-12T05:42:52.897Z,1.70
2019-02-12T05:45:22.131Z,1.75
2019-02-12T05:47:50.958Z,1.79
2019-02-12T05:50:20.754Z,1.80
2019-02-12T05:52:54.443Z,1.82
2019-02-12T05:55:18.327Z,1.84
2019-02-12T05:57:47.161Z,1.85
2019-02-12T06:00:16.711Z,1.88
2019-02-12T06:02:45.548Z,1.91
2019-02-12T06:05:24.963Z,1.96
2019-02-12T06:07:53.796Z,2.00
2019-02-12T06:10:22.599Z,2.03
2019-02-12T06:12:52.420Z,2.08
2019-02-12T06:15:21.329Z,2.09
2019-02-12T06:17:50.143Z,2.11
2019-02-12T06:20:19.709Z,2.12
2019-02-12T06:22:48.504Z,2.12
2019-02-12T06:25:17.889Z,2.11
2019-02-12T06:27:46.587Z,2.12
2019-02-12T06:30:15.363Z,2.12
2019-02-12T06:32:44.554Z,2.11
2019-02-12T06:35:13.383Z,2.10
2019-02-12T06:37:42.305Z,2.10
2019-02-12T06:40:12.466Z,2.07
2019-02-12T06:42:41.783Z,2.05
2019-02-12T06:45:10.661Z,2.05
2019-02-12T06:47:40.307Z,2.03
2019-02-12T06:50:09.966Z,2.04
2019-02-12T06:52:39.384Z,2.07
2019-02-12T06:55:08.499Z,2.08
2019-02-12T06:57:37.355Z,2.10
2019-02-12T07:00:07.138Z,2.11
2019-02-12T07:02:47.206Z,2.13
2019-02-12T07:05:16.075Z,2.15
2019-02-12T07:07:56.734Z,2.20
2019-02-12T07:10:29.979Z,2.23
2019-02-12T07:13:40.406Z,2.28
2019-02-12T07:16:24.363Z,2.31
2019-02-12T07:19:16.740Z,2.35
2019-02-12T07:22:05.478Z,2.47
2019-02-12T07:24:50.494Z,2.42
2019-02-12T07:27:41.881Z,2.47
2019-02-12T07:30:36.036Z,2.55
2019-02-12T07:33:14.290Z,2.63
2019-02-12T07:36:14.999Z,2.72
2019-02-12T07:38:59.740Z,2.82
2019-02-12T07:41:45.663Z,2.93
2019-02-12T07:44:27.932Z,3.06
2019-02-12T07:47:13.234Z,3.18
2019-02-12T07:49:53.098Z,3.30
2019-02-12T07:52:33.796Z,3.42
2019-02-12T07:55:43.215Z,3.54
2019-02-12T07:59:24.325Z,3.65
2019-02-12T08:02:11.095Z,3.76
2019-02-12T08:05:57.770Z,3.81
2019-02-12T08:08:40.919Z,3.83
2019-02-12T08:11:31.736Z,3.83
2019-02-12T08:15:12.214Z,3.81
2019-02-12T08:17:56.908Z,3.82
2019-02-12T08:21:35.740Z,3.84
2019-02-12T08:24:16.062Z,3.86
2019-02-12T08:26:59.220Z,3.88
2019-02-12T08:29:42.574Z,3.92
2019-02-12T08:32:20.416Z,3.98
2019-02-12T08:34:59.876Z,4.03
2019-02-12T08:38:09.735Z,4.08
2019-02-12T08:40:55.584Z,4.12
2019-02-12T08:43:33.490Z,4.15
2019-02-12T08:47:11.265Z,4.15
2019-02-12T08:52:48.329Z,4.20
2019-02-12T08:55:28.582Z,4.23
2019-02-12T09:00:14.483Z,4.27
2019-02-12T09:02:52.695Z,4.34
2019-02-12T09:07:36.779Z,4.39
2019-02-12T09:10:26.549Z,4.45
2019-02-12T09:13:15.243Z,4.49
2019-02-12T09:16:03.212Z,4.54
2019-02-12T09:18:48.477Z,4.60
2019-02-12T09:21:31.201Z,4.65
2019-02-12T09:24:28.947Z,4.71
2019-02-12T09:27:09.914Z,4.82
2019-02-12T09:29:51.061Z,4.88
2019-02-12T09:34:36.819Z,4.95
2019-02-12T09:39:52.986Z,4.99
2019-02-12T09:42:35.777Z,5.01
2019-02-12T09:46:23.760Z,5.10
2019-02-12T09:49:02.083Z,5.33
2019-02-12T09:51:46.062Z,5.52
2019-02-12T09:54:37.621Z,5.75
2019-02-12T09:57:29.975Z,5.96
2019-02-12T10:00:22.904Z,6.14
2019-02-12T10:03:24.043Z,6.21
2019-02-12T10:06:06.695Z,6.27
2019-02-12T10:08:49.435Z,6.32
2019-02-12T10:12:00.154Z,6.36
2019-02-12T10:15:18.766Z,6.36
2019-02-12T10:18:00.774Z,6.39
2019-02-12T10:20:37.686Z,6.40
2019-02-12T10:28:15.871Z,6.47
2019-02-12T10:30:52.631Z,6.59
2019-02-12T10:33:22.485Z,6.68
2019-02-12T10:35:51.252Z,6.69
2019-02-12T10:38:20.913Z,6.74
2019-02-12T10:40:50.763Z,6.74
2019-02-12T10:43:20.539Z,6.79
2019-02-12T10:45:49.362Z,6.83
2019-02-12T10:48:18.897Z,6.88
2019-02-12T10:50:47.745Z,6.93
2019-02-12T10:53:32.288Z,6.94
2019-02-12T10:56:01.818Z,6.93
2019-02-12T10:58:30.798Z,6.98
2019-02-12T11:00:59.702Z,7.07
2019-02-12T11:03:28.963Z,7.17
2019-02-12T11:05:57.988Z,7.23
2019-02-12T11:08:26.800Z,7.22
2019-02-12T11:10:56.176Z,7.21
2019-02-12T11:13:25.044Z,7.21
2019-02-12T11:15:54.568Z,7.24
2019-02-12T11:18:23.582Z,7.29
2019-02-12T11:20:53.988Z,7.33
2019-02-12T11:23:23.020Z,7.36
2019-02-12T11:25:52.839Z,7.36
2019-02-12T11:28:21.676Z,7.40
2019-02-12T11:30:53.527Z,7.56
2019-02-12T11:33:22.366Z,7.93
2019-02-12T11:35:52.826Z,8.42
2019-02-12T11:38:24.955Z,8.58
2019-02-12T11:40:55.172Z,8.69
2019-02-12T11:43:25.750Z,8.76
2019-02-12T11:45:57.374Z,8.76
2019-02-12T11:48:26.278Z,8.68
2019-02-12T11:50:55.340Z,8.57
2019-02-12T11:53:24.609Z,8.42
2019-02-12T11:55:54.008Z,8.26
2019-02-12T11:58:22.842Z,8.40
2019-02-12T12:00:55.770Z,8.73
2019-02-12T12:03:24.589Z,9.16
2019-02-12T12:05:54.457Z,9.51
2019-02-12T12:08:23.930Z,9.80
2019-02-12T12:10:52.749Z,10.08
2019-02-12T12:13:22.210Z,10.40
2019-02-12T12:15:51.827Z,10.54
2019-02-12T12:18:20.614Z,10.66
2019-02-12T12:20:49.548Z,10.80
2019-02-12T12:23:18.443Z,10.97
2019-02-12T12:25:47.330Z,11.11
2019-02-12T12:28:16.352Z,11.19
2019-02-12T12:30:45.213Z,11.37
2019-02-12T12:33:14.034Z,11.56
2019-02-12T12:35:44.635Z,11.65
2019-02-12T12:38:13.429Z,11.77
2019-02-12T12:40:43.034Z,11.94
2019-02-12T12:43:12.687Z,12.00
2019-02-12T12:45:43.196Z,12.05
2019-02-12T12:48:12.684Z,12.11
2019-02-12T12:50:41.619Z,12.12
2019-02-12T12:53:10.538Z,12.21
2019-02-12T12:55:39.311Z,12.29
2019-02-12T12:58:08.161Z,12.28
2019-02-12T13:00:37.638Z,12.30
2019-02-12T13:03:08.474Z,12.26
2019-02-12T13:05:37.341Z,12.39
2019-02-12T13:08:06.139Z,12.43
2019-02-12T13:10:35.024Z,12.44
2019-02-12T13:13:04.811Z,12.44
2019-02-12T13:15:32.781Z,12.53
2019-02-12T13:18:02.257Z,12.61
2019-02-12T13:20:30.383Z,12.70
2019-02-12T13:22:59.272Z,12.73
2019-02-12T13:25:28.083Z,12.71
2019-02-12T13:27:57.000Z,12.62
2019-02-12T13:30:29.843Z,12.62
2019-02-12T13:33:16.738Z,12.49
2019-02-12T13:35:49.215Z,12.39
2019-02-12T13:38:21.868Z,12.29
2019-02-12T13:40:51.403Z,12.33
2019-02-12T13:43:20.250Z,12.33
2019-02-12T13:45:49.142Z,12.33
2019-02-12T13:48:18.195Z,12.32
2019-02-12T13:50:47.017Z,12.25
2019-02-12T13:53:17.261Z,11.98
2019-02-12T13:55:46.095Z,11.82
2019-02-12T13:58:15.078Z,11.73
2019-02-12T14:00:44.184Z,11.70
2019-02-12T14:03:13.023Z,11.60
2019-02-12T14:05:42.182Z,11.52
2019-02-12T14:08:10.823Z,11.49
2019-02-12T14:10:39.897Z,11.44
2019-02-12T14:13:08.767Z,11.42
2019-02-12T14:15:37.562Z,11.45
2019-02-12T14:18:06.367Z,11.54
2019-02-12T14:20:36.252Z,11.53
2019-02-12T14:23:06.335Z,11.61
2019-02-12T14:25:38.246Z,11.79
2019-02-12T14:28:07.459Z,12.01
2019-02-12T14:30:36.247Z,12.16
2019-02-12T14:33:05.131Z,12.17
2019-02-12T14:35:34.141Z,12.10
2019-02-12T14:38:03.155Z,12.00
2019-02-12T14:40:32.092Z,11.98
2019-02-12T14:43:00.910Z,11.90
2019-02-12T14:45:30.755Z,11.87
2019-02-12T14:48:00.138Z,11.86
2019-02-12T14:50:28.997Z,11.80
2019-02-12T14:52:58.106Z,11.71
2019-02-12T14:55:33.636Z,11.58
2019-02-12T14:57:57.818Z,11.46
2019-02-12T15:00:26.679Z,11.37
2019-02-12T15:02:55.616Z,11.22
2019-02-12T15:05:24.615Z,11.12
2019-02-12T15:07:53.578Z,11.00
2019-02-12T15:10:22.852Z,10.95
2019-02-12T15:12:51.748Z,10.89
2019-02-12T15:15:20.609Z,10.80
2019-02-12T15:17:49.496Z,10.68
2019-02-12T15:20:18.460Z,10.61
2019-02-12T15:22:47.955Z,10.53
2019-02-12T15:25:17.349Z,10.44
2019-02-12T15:27:46.799Z,10.35
2019-02-12T15:30:15.783Z,10.24
2019-02-12T15:32:45.715Z,10.17
2019-02-12T15:35:17.716Z,10.10
2019-02-12T15:37:47.495Z,10.02
2019-02-12T15:40:16.838Z,9.93
2019-02-12T15:42:45.925Z,9.82
2019-02-12T15:45:16.207Z,9.72
2019-02-12T15:47:46.163Z,9.67
2019-02-12T15:50:15.175Z,9.61
2019-02-12T15:52:43.990Z,9.51
2019-02-12T15:55:13.028Z,9.43
2019-02-12T15:57:45.285Z,9.37
2019-02-12T16:00:16.249Z,9.30
2019-02-12T16:02:44.419Z,9.25
2019-02-12T16:05:13.948Z,9.18
2019-02-12T16:07:44.689Z,9.11
2019-02-12T16:10:15.312Z,9.03
2019-02-12T16:12:46.533Z,8.95
2019-02-12T16:15:16.152Z,8.89
2019-02-12T16:17:45.028Z,8.81
2019-02-12T16:20:14.670Z,8.73
2019-02-12T16:22:44.061Z,8.65
2019-02-12T16:25:15.366Z,8.58
2019-02-12T16:27:45.405Z,8.51
2019-02-12T16:30:16.139Z,8.39
2019-02-12T16:32:44.957Z,8.30
2019-02-12T16:35:15.503Z,8.23
2019-02-12T16:37:45.663Z,8.16
2019-02-12T16:40:15.938Z,8.08
2019-02-12T16:42:44.731Z,8.01
2019-02-12T16:45:17.372Z,7.94
2019-02-12T16:47:46.149Z,7.87
2019-02-12T16:50:15.022Z,7.80
2019-02-12T16:52:43.856Z,7.72
2019-02-12T16:55:12.640Z,7.66
2019-02-12T16:57:41.553Z,7.60
2019-02-12T17:00:12.927Z,7.53
2019-02-12T17:02:41.780Z,7.47
2019-02-12T17:05:11.427Z,7.40
2019-02-12T17:07:41.231Z,7.34
2019-02-12T17:10:10.134Z,7.28
2019-02-12T17:12:38.920Z,7.23
2019-02-12T17:15:08.409Z,7.17
2019-02-12T17:17:37.190Z,7.13
2019-02-12T17:20:09.760Z,7.04
2019-02-12T17:22:38.570Z,7.01
2019-02-12T17:25:09.396Z,6.95
2019-02-12T17:27:38.344Z,6.91
2019-02-12T17:30:09.173Z,6.92
2019-02-12T17:32:38.019Z,6.84
2019-02-12T17:35:07.543Z,6.78
2019-02-12T17:37:37.979Z,6.74
2019-02-12T17:40:08.636Z,6.71
2019-02-12T17:42:37.459Z,6.67
2019-02-12T17:45:07.190Z,6.62
2019-02-12T17:47:35.966Z,6.59
2019-02-12T17:50:05.131Z,6.55
2019-02-12T17:52:33.995Z,6.53
2019-02-12T17:55:02.793Z,6.48
2019-02-12T17:57:33.447Z,6.44
2019-02-12T18:00:01.452Z,6.42
2019-02-12T18:02:30.264Z,6.39
2019-02-12T18:04:59.239Z,6.34
2019-02-12T18:07:28.119Z,6.31
2019-02-12T18:10:00.734Z,6.28
2019-02-12T18:12:30.343Z,6.24
2019-02-12T18:14:59.916Z,6.19
2019-02-12T18:17:28.771Z,6.16
2019-02-12T18:19:58.445Z,6.13
2019-02-12T18:22:28.216Z,6.09
2019-02-12T18:24:58.746Z,6.07
2019-02-12T18:27:27.616Z,6.10
2019-02-12T18:29:58.215Z,6.13
2019-02-12T18:32:26.988Z,6.15
2019-02-12T18:34:55.818Z,6.17
2019-02-12T18:37:24.678Z,6.17
2019-02-12T18:39:54.196Z,6.14
2019-02-12T18:42:23.031Z,6.09
2019-02-12T18:44:54.598Z,6.03
2019-02-12T18:47:25.904Z,5.98
2019-02-12T18:50:06.909Z,5.93
2019-02-12T18:52:40.233Z,5.88
2019-02-12T18:55:09.927Z,5.85
2019-02-12T18:57:38.902Z,5.80
2019-02-12T19:00:11.230Z,5.77
2019-02-12T19:02:41.299Z,5.74
2019-02-12T19:05:10.241Z,5.70
2019-02-12T19:07:42.909Z,5.69
2019-02-12T19:10:13.615Z,5.66
2019-02-12T19:12:43.861Z,5.65
2019-02-12T19:15:14.269Z,5.64
2019-02-12T19:17:45.260Z,5.62
2019-02-12T19:20:15.103Z,5.60
2019-02-12T19:22:44.031Z,5.60
2019-02-12T19:25:13.416Z,5.58
2019-02-12T19:27:42.243Z,5.57
2019-02-12T19:30:12.683Z,5.56
2019-02-12T19:32:42.970Z,5.54
2019-02-12T19:35:11.862Z,5.52
2019-02-12T19:37:43.719Z,5.51
2019-02-12T19:40:12.537Z,5.50
2019-02-12T19:42:41.393Z,5.48
2019-02-12T19:45:10.597Z,5.48
2019-02-12T19:47:40.306Z,5.46
2019-02-12T19:50:09.445Z,5.44
2019-02-12T19:52:38.362Z,5.42
2019-02-12T19:55:07.986Z,5.42
2019-02-12T19:57:36.874Z,5.40
2019-02-12T20:00:06.474Z,5.39
2019-02-12T20:02:35.365Z,5.38
2019-02-12T20:05:04.515Z,5.37
2019-02-12T20:07:33.384Z,5.36
2019-02-12T20:10:02.746Z,5.35
2019-02-12T20:12:33.075Z,5.34
2019-02-12T20:15:01.890Z,5.33
2019-02-12T20:17:30.754Z,5.32
2019-02-12T20:19:59.647Z,5.31
2019-02-12T20:22:28.522Z,5.30
2019-02-12T20:24:57.451Z,5.30
2019-02-12T20:27:26.431Z,5.29
2019-02-12T20:29:56.558Z,5.29
2019-02-12T20:32:25.751Z,5.29
2019-02-12T20:34:54.576Z,5.31
2019-02-12T20:37:23.520Z,5.31
2019-02-12T20:39:52.622Z,5.33
2019-02-12T20:42:21.542Z,5.35
2019-02-12T20:44:52.835Z,5.35
2019-02-12T20:47:21.779Z,5.39
2019-02-12T20:49:50.632Z,5.43
2019-02-12T20:52:19.515Z,5.45
2019-02-12T20:54:48.454Z,5.46
2019-02-12T20:57:17.263Z,5.49
2019-02-12T20:59:46.043Z,5.51
2019-02-12T21:02:14.992Z,5.55
2019-02-12T21:04:43.784Z,5.59
2019-02-12T21:07:12.639Z,5.61
2019-02-12T21:09:41.464Z,5.60
2019-02-12T21:12:10.383Z,5.56
2019-02-12T21:14:39.190Z,5.50
2019-02-12T21:17:08.146Z,5.48
2019-02-12T21:19:36.929Z,5.45
2019-02-12T21:22:05.831Z,5.41
2019-02-12T21:24:35.433Z,5.37
2019-02-12T21:27:04.298Z,5.34
2019-02-12T21:29:33.236Z,5.32
2019-02-12T21:32:02.140Z,5.29
2019-02-12T21:34:31.927Z,5.25
2019-02-12T21:37:00.884Z,5.21
2019-02-12T21:39:29.927Z,5.18
2019-02-12T21:41:58.723Z,5.14
2019-02-12T21:44:27.610Z,5.11
2019-02-12T21:46:57.083Z,5.10
2019-02-12T21:49:27.093Z,5.07
2019-02-12T21:51:55.990Z,5.03
2019-02-12T21:54:24.911Z,5.01
2019-02-12T21:56:54.567Z,4.99
2019-02-12T21:59:23.411Z,4.96
2019-02-12T22:01:52.200Z,4.94
2019-02-12T22:04:21.127Z,4.91
2019-02-12T22:06:50.064Z,4.88
2019-02-12T22:09:19.196Z,4.85
2019-02-12T22:11:48.071Z,4.85
2019-02-12T22:14:17.064Z,4.81
2019-02-12T22:16:45.914Z,4.78
2019-02-12T22:19:14.763Z,4.75
2019-02-12T22:21:43.618Z,4.74
2019-02-12T22:24:13.669Z,4.72
2019-02-12T22:26:43.732Z,4.71
2019-02-12T22:29:13.406Z,4.69
2019-02-12T22:31:42.314Z,4.68
2019-02-12T22:34:11.181Z,4.67
2019-02-12T22:36:40.012Z,4.66
2019-02-12T22:39:08.886Z,4.65
2019-02-12T22:41:37.775Z,4.64
2019-02-12T22:44:06.582Z,4.64
2019-02-12T22:46:35.429Z,4.63
2019-02-12T22:49:04.261Z,4.62
2019-02-12T22:51:33.040Z,4.63
2019-02-12T22:54:01.844Z,4.62
2019-02-12T22:56:30.667Z,4.64
2019-02-12T22:58:59.484Z,4.65
2019-02-12T23:01:33.428Z,4.65
2019-02-12T23:04:02.240Z,4.69
2019-02-12T23:06:31.126Z,4.72
2019-02-12T23:09:00.050Z,4.75
2019-02-12T23:11:28.809Z,4.76
2019-02-12T23:13:58.614Z,4.77
2019-02-12T23:16:29.250Z,4.78
2019-02-12T23:18:58.583Z,4.78
2019-02-12T23:21:27.528Z,4.75
2019-02-12T23:23:57.055Z,4.75
2019-02-12T23:26:25.920Z,4.76
2019-02-12T23:28:54.776Z,4.74
2019-02-12T23:31:23.613Z,4.76
2019-02-12T23:33:52.482Z,4.76
2019-02-12T23:36:21.266Z,4.79
2019-02-12T23:38:50.095Z,4.79
2019-02-12T23:41:18.979Z,4.81
2019-02-12T23:43:47.794Z,4.83
2019-02-12T23:46:16.959Z,4.86
2019-02-12T23:48:45.739Z,4.88
2019-02-12T23:51:14.706Z,4.89
2019-02-12T23:53:43.537Z,4.93
2019-02-12T23:56:12.390Z,4.93
2019-02-12T23:58:41.229Z,4.94
